Flag for Spain

Past Weather in 38°20'43.0"N, 0°28'59.0"W, Spain — Yesterday and Last 2 Weeks

Currently: 86 °F. Passing clouds. (Weather station: Alicante / El Altet, Spain). See more current weather

Past Weather in 38°20'43.0"N, 0°28'59.0"W — Graph

°F

38°20'43.0"N, 0°28'59.0"W Temperature Yesterday

Maximum temperature yesterday: 84 °F (at 11:30 am)
Minimum temperature yesterday: 73 °F (at 7:30 am)
Average temperature yesterday: 80 °F

High & Low Weather Summary for the Past Weeks

 TemperatureHumidityPressure
High91 °F (Jul 15, 2:00 pm)94% (Jul 11, 3:30 am)30.09 "Hg (Jul 11, 3:30 am)
Low68 °F (Jul 4, 7:00 am)16% (Jul 4, 12:30 pm)29.71 "Hg (Jul 6, 7:00 pm)
Average79 °F70%29.93 "Hg
* Reported Jul 3 3:00 pm — Jul 18 3:00 pm, 38°20'43.0"N, 0°28'59.0"W. Weather by CustomWeather, © 2024

Note: Actual official high and low records may vary slightly from our data, if they occured in-between our weather recording intervals... More about our weather records

38°20'43.0"N, 0°28'59.0"W Weather History for the Previous 24 Hours

Scroll right to see more
 ConditionsComfort  
Time TempWeatherWind HumidityBarometerVisibility
3:00 pm
Thu, Jul 18
86 °FPassing clouds.7 mph52%30.07 "HgN/A
2:30 pm86 °FPassing clouds.7 mph52%30.07 "HgN/A
2:00 pm84 °FPassing clouds.8 mph58%30.07 "HgN/A
1:30 pm84 °FPassing clouds.7 mph55%30.07 "HgN/A
1:00 pm84 °FPassing clouds.7 mph55%30.07 "HgN/A
12:30 pm84 °FPassing clouds.8 mph55%30.09 "HgN/A
12:00 pm82 °FPassing clouds.7 mph55%30.09 "HgN/A
11:30 am82 °FPassing clouds.7 mph62%30.09 "HgN/A
11:00 am81 °FPassing clouds.6 mph66%30.09 "HgN/A
10:30 am82 °FPassing clouds.6 mph62%30.09 "HgN/A
10:00 am81 °FPassing clouds.6 mph66%30.09 "HgN/A
9:00 am79 °FPassing clouds.2 mph61%30.07 "HgN/A
8:30 am77 °FPassing clouds.2 mph61%30.07 "HgN/A
8:00 am73 °FPassing clouds.2 mph69%30.04 "HgN/A
7:30 am72 °FPassing clouds.2 mph73%30.04 "HgN/A
7:00 am73 °FSunny.1 mph69%30.04 "Hg10 mi
6:30 am75 °FPassing clouds.3 mph69%30.01 "HgN/A
6:00 am72 °FClear.3 mph73%30.04 "Hg10 mi
5:30 am73 °FClear.2 mph69%30.04 "Hg10 mi
5:00 am73 °FClear.2 mph69%30.04 "Hg10 mi
4:00 am73 °FClear.3 mph69%30.04 "Hg10 mi
3:30 am73 °FClear.3 mph69%30.04 "Hg10 mi
3:00 am73 °FClear.3 mph69%30.04 "Hg10 mi
2:30 am75 °FClear.3 mph65%30.04 "Hg10 mi
2:00 am77 °FClear.1 mph65%30.07 "Hg10 mi
1:30 am75 °FClear.1 mph65%30.07 "Hg10 mi
1:00 am75 °FClear.2 mph65%30.07 "Hg10 mi
12:30 am79 °FClear.2 mph61%30.07 "Hg10 mi
12:00 am79 °FPassing clouds.5 mph65%30.04 "HgN/A
11:30 pm
Wed, Jul 17
79 °FPassing clouds.5 mph61%30.07 "HgN/A
11:00 pm79 °FClear.7 mph65%30.04 "Hg10 mi
10:30 pm79 °FPassing clouds.7 mph65%30.04 "HgN/A
10:00 pm79 °FClear.9 mph70%30.04 "Hg10 mi
9:30 pm79 °FClear.9 mph70%30.04 "Hg10 mi
9:00 pm79 °FPassing clouds.12 mph70%30.01 "HgN/A
8:30 pm81 °FPassing clouds.10 mph66%30.01 "HgN/A
8:00 pm81 °FPassing clouds.10 mph70%30.01 "HgN/A
7:30 pm81 °FPassing clouds.10 mph70%30.01 "HgN/A
7:00 pm81 °FPassing clouds.10 mph70%30.01 "HgN/A
6:30 pm81 °FPassing clouds.12 mph70%30.01 "HgN/A
6:00 pm82 °FPassing clouds.12 mph66%30.01 "HgN/A
5:30 pm82 °FPassing clouds.13 mph66%30.04 "HgN/A
5:00 pm84 °FPassing clouds.10 mph62%30.04 "HgN/A
4:30 pm82 °FPassing clouds.9 mph70%30.04 "HgN/A
4:00 pm82 °FPassing clouds.13 mph70%30.04 "HgN/A
Weather by CustomWeather, © 2024

See weather overview